createdAt,value
2022-12-15T00:00:39.564Z,97067.59
2022-12-15T00:03:30.351Z,97066.47
2022-12-15T00:06:21.726Z,97056.34
2022-12-15T00:09:14.412Z,97059.19
2022-12-15T00:12:05.702Z,97059.03
2022-12-15T00:14:56.126Z,97056.41
2022-12-15T00:17:47.091Z,97061.78
2022-12-15T00:20:37.343Z,97060.78
2022-12-15T00:23:30.947Z,97067.63
2022-12-15T00:26:21.967Z,97073.31
2022-12-15T00:29:12.732Z,97064.78
2022-12-15T00:32:02.756Z,97055.84
2022-12-15T00:34:53.542Z,97056.66
2022-12-15T00:37:43.726Z,97063.78
2022-12-15T00:40:16.255Z,97073.41
2022-12-15T00:42:49.513Z,97074.41
2022-12-15T00:45:42.218Z,97072.09
2022-12-15T00:48:14.496Z,97065.88
2022-12-15T00:50:52.574Z,97072.59
2022-12-15T00:53:43.440Z,97072.06
2022-12-15T00:56:34.161Z,97075.81
2022-12-15T00:59:24.876Z,97076.28
2022-12-15T01:02:16.289Z,97077.78
2022-12-15T01:05:06.673Z,97074.47
2022-12-15T01:07:57.521Z,97080.31
2022-12-15T01:10:47.834Z,97087.09
2022-12-15T01:13:38.875Z,97096.28
2022-12-15T01:16:33.906Z,97097.63
2022-12-15T01:19:27.214Z,97094.28
2022-12-15T01:21:59.774Z,97094.34
2022-12-15T01:24:32.003Z,97093.00
2022-12-15T01:27:04.471Z,97100.72
2022-12-15T01:29:36.328Z,97099.66
2022-12-15T01:32:09.335Z,97101.75
2022-12-15T01:34:41.306Z,97099.75
2022-12-15T01:37:13.852Z,97093.38
2022-12-15T01:40:04.174Z,97106.28
2022-12-15T01:42:36.476Z,97105.44
2022-12-15T01:45:27.029Z,97119.78
2022-12-15T01:48:10.616Z,97131.53
2022-12-15T01:51:07.428Z,97125.44
2022-12-15T01:53:52.275Z,97112.81
2022-12-15T01:56:26.540Z,97116.56
2022-12-15T01:59:02.517Z,97119.09
2022-12-15T02:01:34.821Z,97121.84
2022-12-15T02:04:09.110Z,97119.75
2022-12-15T02:06:41.018Z,97122.03
2022-12-15T02:09:14.166Z,97117.34
2022-12-15T02:12:41.465Z,97120.25
2022-12-15T02:15:49.447Z,97119.28
2022-12-15T02:19:07.862Z,97132.22
2022-12-15T02:22:25.482Z,97129.41
2022-12-15T02:25:23.018Z,97128.69
2022-12-15T02:28:08.815Z,97126.16
2022-12-15T02:31:32.297Z,97133.94
2022-12-15T02:34:15.246Z,97130.91
2022-12-15T02:36:52.214Z,97132.63
2022-12-15T02:39:25.761Z,97140.16
2022-12-15T02:41:58.046Z,97134.97
2022-12-15T02:44:44.074Z,97134.25
2022-12-15T02:47:54.067Z,97146.47
2022-12-15T02:50:40.871Z,97142.75
2022-12-15T02:53:57.984Z,97142.28
2022-12-15T02:56:53.876Z,97146.97
2022-12-15T02:59:55.850Z,97141.91
2022-12-15T03:02:31.109Z,97142.91
2022-12-15T03:05:04.457Z,97151.47
2022-12-15T03:07:36.762Z,97148.16
2022-12-15T03:10:11.207Z,97142.97
2022-12-15T03:12:44.006Z,97154.09
2022-12-15T03:15:16.424Z,97155.03
2022-12-15T03:17:49.265Z,97156.50
2022-12-15T03:20:21.616Z,97149.81
2022-12-15T03:22:53.855Z,97156.97
2022-12-15T03:25:26.546Z,97156.38
2022-12-15T03:27:58.418Z,97152.84
2022-12-15T03:30:31.162Z,97159.28
2022-12-15T03:33:03.084Z,97161.81
2022-12-15T03:35:35.823Z,97159.38
2022-12-15T03:38:08.158Z,97168.97
2022-12-15T03:40:40.068Z,97160.59
2022-12-15T03:43:12.563Z,97167.13
2022-12-15T03:45:44.486Z,97174.91
2022-12-15T03:48:17.281Z,97166.84
2022-12-15T03:50:50.466Z,97166.84
2022-12-15T03:53:22.429Z,97172.56
2022-12-15T03:55:55.273Z,97176.53
2022-12-15T03:58:27.542Z,97167.88
2022-12-15T04:00:59.453Z,97155.06
2022-12-15T04:03:32.550Z,97161.38
2022-12-15T04:06:05.223Z,97163.13
2022-12-15T04:08:38.044Z,97171.53
2022-12-15T04:11:09.928Z,97175.16
2022-12-15T04:13:43.293Z,97177.91
2022-12-15T04:16:19.834Z,97179.56
2022-12-15T04:19:12.682Z,97185.44
2022-12-15T04:21:44.563Z,97182.84
2022-12-15T04:24:35.553Z,97173.97
2022-12-15T04:27:25.792Z,97171.84
2022-12-15T04:30:16.958Z,97186.00
2022-12-15T04:33:07.708Z,97182.16
2022-12-15T04:35:58.995Z,97178.28
2022-12-15T04:38:50.535Z,97174.44
2022-12-15T04:41:43.564Z,97183.22
2022-12-15T04:44:34.279Z,97187.19
2022-12-15T04:47:24.698Z,97193.22
2022-12-15T04:50:15.761Z,97191.66
2022-12-15T04:53:06.440Z,97169.16
2022-12-15T04:55:57.622Z,97174.00
2022-12-15T04:58:47.870Z,97159.97
2022-12-15T05:01:39.324Z,97154.22
2022-12-15T05:04:30.794Z,97163.44
2022-12-15T05:07:21.249Z,97167.59
2022-12-15T05:10:15.153Z,97181.06
2022-12-15T05:13:05.994Z,97188.16
2022-12-15T05:15:57.371Z,97181.97
2022-12-15T05:18:48.178Z,97178.94
2022-12-15T05:21:39.217Z,97190.94
2022-12-15T05:24:29.364Z,97193.19
2022-12-15T05:27:20.505Z,97194.47
2022-12-15T05:30:11.203Z,97208.66
2022-12-15T05:32:43.477Z,97181.66
2022-12-15T05:35:16.992Z,97182.50
2022-12-15T05:37:48.965Z,97183.97
2022-12-15T05:40:21.673Z,97178.16
2022-12-15T05:42:53.544Z,97183.72
2022-12-15T05:45:28.346Z,97177.28
2022-12-15T05:48:00.665Z,97192.25
2022-12-15T05:50:32.624Z,97186.84
2022-12-15T05:53:05.353Z,97178.13
2022-12-15T05:55:37.203Z,97187.63
2022-12-15T06:01:26.299Z,97179.63
2022-12-15T06:06:52.446Z,97178.03
2022-12-15T06:09:24.284Z,97180.28
2022-12-15T06:11:56.578Z,97180.03
2022-12-15T06:14:28.503Z,97173.47
2022-12-15T06:17:01.481Z,97170.28
2022-12-15T06:19:33.869Z,97178.53
2022-12-15T06:22:06.179Z,97173.97
2022-12-15T06:24:39.459Z,97181.22
2022-12-15T06:27:11.358Z,97194.22
2022-12-15T06:29:44.050Z,97195.41
2022-12-15T06:32:18.434Z,97192.75
2022-12-15T06:34:51.100Z,97185.91
2022-12-15T06:37:23.384Z,97199.13
2022-12-15T06:39:55.317Z,97199.13
2022-12-15T06:42:28.587Z,97194.28
2022-12-15T06:45:01.020Z,97202.13
2022-12-15T06:47:32.904Z,97203.38
2022-12-15T06:50:05.957Z,97198.19
2022-12-15T06:52:37.809Z,97195.75
2022-12-15T06:55:10.549Z,97191.75
2022-12-15T06:57:42.395Z,97183.19
2022-12-15T07:00:16.089Z,97191.09
2022-12-15T07:02:50.111Z,97192.28
2022-12-15T07:05:23.223Z,97196.25
2022-12-15T07:07:55.099Z,97197.59
2022-12-15T07:10:28.474Z,97205.41
2022-12-15T07:13:00.392Z,97212.41
2022-12-15T07:15:33.196Z,97210.53
2022-12-15T07:18:07.012Z,97224.16
2022-12-15T07:20:39.374Z,97223.47
2022-12-15T07:23:12.092Z,97216.78
2022-12-15T07:25:43.953Z,97226.47
2022-12-15T07:28:20.053Z,97239.47
2022-12-15T07:31:02.534Z,97241.53
2022-12-15T07:33:36.890Z,97242.97
2022-12-15T07:36:09.054Z,97237.81
2022-12-15T07:38:41.887Z,97240.00
2022-12-15T07:41:13.828Z,97256.91
2022-12-15T07:43:48.197Z,97266.72
2022-12-15T07:46:21.955Z,97270.50
2022-12-15T07:48:54.555Z,97259.84
2022-12-15T07:51:27.733Z,97253.84
2022-12-15T07:54:00.874Z,97268.09
2022-12-15T07:56:38.909Z,97258.50
2022-12-15T07:59:11.959Z,97267.50
2022-12-15T08:01:44.217Z,97265.00
2022-12-15T08:04:20.477Z,97266.56
2022-12-15T08:06:54.622Z,97266.94
2022-12-15T08:09:27.390Z,97270.69
2022-12-15T08:12:00.361Z,97277.19
2022-12-15T08:14:34.338Z,97277.22
2022-12-15T08:17:06.500Z,97267.59
2022-12-15T08:19:39.859Z,97265.28
2022-12-15T08:22:15.453Z,97268.06
2022-12-15T08:24:49.059Z,97270.13
2022-12-15T08:27:22.441Z,97263.16
2022-12-15T08:29:54.731Z,97274.31
2022-12-15T08:32:27.611Z,97276.88
2022-12-15T08:34:59.476Z,97269.25
2022-12-15T08:37:32.204Z,97271.19
2022-12-15T08:40:05.375Z,97280.03
2022-12-15T08:42:38.535Z,97279.47
2022-12-15T08:45:14.964Z,97280.41
2022-12-15T08:47:46.901Z,97283.19
2022-12-15T08:50:19.602Z,97286.53
2022-12-15T08:53:21.353Z,97287.56
2022-12-15T08:55:45.052Z,97295.38
2022-12-15T08:58:18.298Z,97295.63
2022-12-15T09:00:50.271Z,97302.25
2022-12-15T09:03:23.861Z,97298.44
2022-12-15T09:05:57.552Z,97291.28
2022-12-15T09:08:31.342Z,97272.50
2022-12-15T09:11:06.442Z,97266.78
2022-12-15T09:13:39.291Z,97250.41
2022-12-15T09:16:15.983Z,97247.69
2022-12-15T09:18:51.619Z,97245.81
2022-12-15T09:21:28.063Z,97262.81
2022-12-15T09:24:02.168Z,97260.31
2022-12-15T09:26:35.362Z,97261.78
2022-12-15T09:29:07.629Z,97267.66
2022-12-15T09:31:40.479Z,97270.44
2022-12-15T09:34:16.474Z,97254.88
2022-12-15T09:36:48.421Z,97251.69
2022-12-15T09:39:21.743Z,97259.19
2022-12-15T09:41:59.348Z,97269.16
2022-12-15T09:44:33.244Z,97267.41
2022-12-15T09:47:45.321Z,97278.06
2022-12-15T09:50:24.563Z,97278.66
2022-12-15T09:53:01.582Z,97290.53
2022-12-15T09:55:34.386Z,97296.31
2022-12-15T09:58:50.589Z,97295.34
2022-12-15T10:01:51.362Z,97307.88
2022-12-15T10:04:58.732Z,97319.63
2022-12-15T10:07:39.930Z,97315.78
2022-12-15T10:10:41.206Z,97315.56
2022-12-15T10:13:24.094Z,97314.25
2022-12-15T10:16:03.887Z,97305.75
2022-12-15T10:18:50.535Z,97304.66
2022-12-15T10:21:28.635Z,97300.16
2022-12-15T10:24:59.711Z,97306.13
2022-12-15T10:27:46.489Z,97300.16
2022-12-15T10:30:22.154Z,97282.25
2022-12-15T10:33:22.893Z,97276.44
2022-12-15T10:35:56.293Z,97265.25
2022-12-15T10:38:42.385Z,97251.44
2022-12-15T10:41:18.194Z,97232.66
2022-12-15T10:43:52.387Z,97220.78
2022-12-15T10:46:28.103Z,97216.63
2022-12-15T10:49:06.868Z,97210.84
2022-12-15T10:51:53.917Z,97207.47
2022-12-15T10:54:37.347Z,97209.28
2022-12-15T10:57:31.707Z,97196.16
2022-12-15T11:00:16.053Z,97185.69
2022-12-15T11:02:48.051Z,97179.91
2022-12-15T11:05:20.682Z,97167.16
2022-12-15T11:08:14.698Z,97166.44
2022-12-15T11:11:17.995Z,97165.72
2022-12-15T11:14:10.291Z,97160.03
2022-12-15T11:16:59.276Z,97171.53
2022-12-15T11:19:49.422Z,97162.22
2022-12-15T11:22:50.632Z,97166.00
2022-12-15T11:25:42.465Z,97153.44
2022-12-15T11:28:20.704Z,97145.13
2022-12-15T11:31:29.810Z,97146.53
2022-12-15T11:34:01.729Z,97143.19
2022-12-15T11:37:36.519Z,97140.97
2022-12-15T11:40:39.680Z,97141.03
2022-12-15T11:43:11.445Z,97139.56
2022-12-15T11:46:17.664Z,97152.47
2022-12-15T11:48:56.553Z,97136.34
2022-12-15T11:51:53.556Z,97144.94
2022-12-15T11:54:53.591Z,97125.56
2022-12-15T11:58:09.509Z,97125.19
2022-12-15T12:01:01.491Z,97115.41
2022-12-15T12:04:13.328Z,97122.31
2022-12-15T12:06:59.151Z,97109.97
2022-12-15T12:09:37.473Z,97100.16
2022-12-15T12:12:34.565Z,97097.22
2022-12-15T12:15:15.915Z,97115.75
2022-12-15T12:18:12.991Z,97105.00
2022-12-15T12:21:11.258Z,97096.13
2022-12-15T12:23:53.975Z,97095.63
2022-12-15T12:26:26.815Z,97095.31
2022-12-15T12:29:18.233Z,97079.88
2022-12-15T12:32:10.285Z,97074.31
2022-12-15T12:35:30.982Z,97074.84
2022-12-15T12:38:08.845Z,97068.59
2022-12-15T12:40:40.996Z,97062.84
2022-12-15T12:43:32.886Z,97063.19
2022-12-15T12:46:14.737Z,97063.53
2022-12-15T12:48:51.001Z,97064.13
2022-12-15T12:51:41.316Z,97055.47
2022-12-15T12:54:34.686Z,97056.41
2022-12-15T12:57:12.708Z,97041.09
2022-12-15T12:59:57.335Z,97042.41
2022-12-15T13:02:30.912Z,97028.25
2022-12-15T13:05:27.355Z,97029.00
2022-12-15T13:08:05.355Z,97034.69
2022-12-15T13:10:41.183Z,97022.28
2022-12-15T13:13:31.901Z,97020.78
2022-12-15T13:16:40.100Z,97017.16
2022-12-15T13:19:13.655Z,97012.28
2022-12-15T13:21:53.123Z,97016.94
2022-12-15T13:24:41.326Z,97007.31
2022-12-15T13:27:15.627Z,96999.94
2022-12-15T13:30:07.941Z,96995.59
2022-12-15T13:32:46.450Z,96999.66
2022-12-15T13:35:19.711Z,96993.81
2022-12-15T13:38:02.879Z,96988.91
2022-12-15T13:40:35.579Z,96985.72
2022-12-15T13:43:31.885Z,96983.72
2022-12-15T13:46:23.651Z,96982.44
2022-12-15T13:49:37.341Z,96988.22
2022-12-15T13:53:17.929Z,96992.06
2022-12-15T13:55:59.365Z,96990.06
2022-12-15T13:58:41.661Z,96989.84
2022-12-15T14:01:31.811Z,96995.63
2022-12-15T14:04:20.199Z,96987.13
2022-12-15T14:07:00.257Z,96997.41
2022-12-15T14:09:42.435Z,96985.69
2022-12-15T14:12:14.571Z,96987.38
2022-12-15T14:14:49.351Z,96981.03
2022-12-15T14:17:22.033Z,96981.72
2022-12-15T14:19:54.626Z,96977.81
2022-12-15T14:22:30.483Z,96983.97
2022-12-15T14:25:24.382Z,96974.56
2022-12-15T14:27:57.201Z,96967.72
2022-12-15T14:30:33.848Z,96971.81
2022-12-15T14:33:15.013Z,96972.69
2022-12-15T14:35:51.866Z,96970.09
2022-12-15T14:38:42.451Z,96968.88
2022-12-15T14:41:25.916Z,96969.31
2022-12-15T14:44:31.416Z,96968.31
2022-12-15T14:46:58.973Z,96979.81
2022-12-15T14:49:38.430Z,96979.13
2022-12-15T14:52:39.299Z,96989.16
2022-12-15T14:55:35.176Z,96991.03
2022-12-15T14:58:40.836Z,96986.03
2022-12-15T15:01:41.144Z,96989.88
2022-12-15T15:04:32.578Z,96988.69
2022-12-15T15:07:14.308Z,96991.63
2022-12-15T15:09:46.957Z,96993.72
2022-12-15T15:12:23.262Z,96997.47
2022-12-15T15:15:03.971Z,97001.56
2022-12-15T15:17:48.856Z,96996.03
2022-12-15T15:20:29.543Z,96980.84
2022-12-15T15:23:08.077Z,96988.38
2022-12-15T15:25:52.456Z,96977.03
2022-12-15T15:28:29.032Z,96977.06
2022-12-15T15:31:08.004Z,96973.44
2022-12-15T15:33:40.330Z,96974.88
2022-12-15T15:36:14.324Z,96974.34
2022-12-15T15:38:47.102Z,96980.63
2022-12-15T15:41:32.441Z,96981.94
2022-12-15T15:44:14.959Z,96986.00
2022-12-15T15:46:51.285Z,96986.59
2022-12-15T15:49:24.501Z,96984.69
2022-12-15T15:51:57.186Z,96991.13
2022-12-15T15:54:36.007Z,96989.31
2022-12-15T15:57:16.411Z,96995.28
2022-12-15T15:59:48.623Z,96997.34
2022-12-15T16:02:21.080Z,96999.28
2022-12-15T16:04:53.076Z,97007.59
2022-12-15T16:07:29.173Z,97005.75
2022-12-15T16:10:01.147Z,97006.28
2022-12-15T16:12:51.686Z,97010.63
2022-12-15T16:15:26.699Z,97001.16
2022-12-15T16:17:59.570Z,96994.16
2022-12-15T16:20:31.446Z,96993.34
2022-12-15T16:23:24.367Z,96999.38
2022-12-15T16:26:00.272Z,96983.22
2022-12-15T16:28:33.273Z,96987.06
2022-12-15T16:31:05.573Z,96978.63
2022-12-15T16:33:38.121Z,96982.16
2022-12-15T16:36:14.156Z,96972.13
2022-12-15T16:38:47.064Z,96969.41
2022-12-15T16:41:19.125Z,96963.22
2022-12-15T16:43:51.669Z,96964.63
2022-12-15T16:46:23.585Z,96954.13
2022-12-15T16:48:56.169Z,96951.47
2022-12-15T16:51:37.592Z,96953.38
2022-12-15T16:54:24.444Z,96949.22
2022-12-15T16:56:58.639Z,96940.38
2022-12-15T16:59:33.406Z,96946.97
2022-12-15T17:02:29.319Z,96946.16
2022-12-15T17:05:01.587Z,96946.16
2022-12-15T17:07:34.177Z,96936.47
2022-12-15T17:10:07.233Z,96926.66
2022-12-15T17:12:39.783Z,96922.19
2022-12-15T17:15:26.190Z,96925.47
2022-12-15T17:17:58.810Z,96930.63
2022-12-15T17:20:31.660Z,96934.75
2022-12-15T17:23:10.997Z,96928.59
2022-12-15T17:26:20.958Z,96920.22
2022-12-15T17:28:40.983Z,96927.25
2022-12-15T17:31:27.651Z,96924.41
2022-12-15T17:34:25.247Z,96923.34
2022-12-15T17:37:03.393Z,96927.47
2022-12-15T17:39:35.653Z,96919.88
2022-12-15T17:42:20.180Z,96922.66
2022-12-15T17:44:52.231Z,96922.81
2022-12-15T17:47:25.346Z,96915.00
2022-12-15T17:49:57.234Z,96921.69
2022-12-15T17:52:34.783Z,96921.03
2022-12-15T17:55:24.168Z,96915.81
2022-12-15T17:57:56.731Z,96913.31
2022-12-15T18:00:32.420Z,96916.50
2022-12-15T18:03:05.268Z,96929.56
2022-12-15T18:05:37.467Z,96929.63
2022-12-15T18:08:20.235Z,96925.72
2022-12-15T18:10:56.176Z,96929.78
2022-12-15T18:13:35.574Z,96926.47
2022-12-15T18:16:07.963Z,96927.53
2022-12-15T18:18:40.631Z,96926.88
2022-12-15T18:21:15.554Z,96919.63
2022-12-15T18:23:49.599Z,96923.59
2022-12-15T18:26:22.818Z,96929.66
2022-12-15T18:28:55.431Z,96925.50
2022-12-15T18:31:29.425Z,96924.81
2022-12-15T18:34:04.663Z,96930.88
2022-12-15T18:36:37.572Z,96932.09
2022-12-15T18:39:17.533Z,96931.34
2022-12-15T18:41:50.877Z,96926.97
2022-12-15T18:44:28.906Z,96924.13
2022-12-15T18:47:01.027Z,96923.91
2022-12-15T18:49:33.605Z,96913.84
2022-12-15T18:52:06.000Z,96914.75
2022-12-15T18:54:38.937Z,96922.81
2022-12-15T18:57:31.158Z,96922.28
2022-12-15T19:00:29.672Z,96911.41
2022-12-15T19:03:01.705Z,96924.34
2022-12-15T19:05:34.457Z,96914.47
2022-12-15T19:08:18.024Z,96917.09
2022-12-15T19:11:01.568Z,96920.91
2022-12-15T19:13:37.463Z,96922.72
2022-12-15T19:16:20.205Z,96908.16
2022-12-15T19:19:16.911Z,96906.22
2022-12-15T19:22:08.285Z,96903.63
2022-12-15T19:24:55.126Z,96910.06
2022-12-15T19:27:27.814Z,96906.09
2022-12-15T19:29:59.722Z,96908.69
2022-12-15T19:32:32.216Z,96907.28
2022-12-15T19:35:04.456Z,96906.50
2022-12-15T19:37:41.050Z,96912.50
2022-12-15T19:40:30.535Z,96905.28
2022-12-15T19:43:04.529Z,96915.28
2022-12-15T19:45:36.469Z,96904.38
2022-12-15T19:48:11.605Z,96918.28
2022-12-15T19:50:43.920Z,96918.75
2022-12-15T19:53:30.866Z,96912.25
2022-12-15T19:56:04.861Z,96918.34
2022-12-15T19:58:37.374Z,96927.22
2022-12-15T20:01:14.731Z,96926.63
2022-12-15T20:03:52.414Z,96929.69
2022-12-15T20:06:26.998Z,96942.13
2022-12-15T20:09:00.138Z,96932.28
2022-12-15T20:11:33.046Z,96933.44
2022-12-15T20:14:14.371Z,96942.03
2022-12-15T20:16:46.340Z,96933.72
2022-12-15T20:19:18.974Z,96935.06
2022-12-15T20:21:51.454Z,96939.81
2022-12-15T20:24:24.016Z,96936.88
2022-12-15T20:26:55.952Z,96948.97
2022-12-15T20:29:31.492Z,96943.13
2022-12-15T20:32:11.895Z,96953.38
2022-12-15T20:34:45.330Z,96948.69
2022-12-15T20:37:30.391Z,96953.84
2022-12-15T20:40:03.378Z,96958.63
2022-12-15T20:42:35.261Z,96948.81
2022-12-15T20:45:07.964Z,96958.91
2022-12-15T20:47:41.756Z,96956.50
2022-12-15T20:50:36.373Z,96958.00
2022-12-15T20:53:27.777Z,96945.44
2022-12-15T20:56:00.410Z,96956.78
2022-12-15T20:58:33.250Z,96953.47
2022-12-15T21:01:36.610Z,96961.13
2022-12-15T21:04:25.857Z,96964.88
2022-12-15T21:06:58.229Z,96969.56
2022-12-15T21:09:30.210Z,96968.84
2022-12-15T21:12:07.444Z,96974.59
2022-12-15T21:14:41.470Z,96975.94
2022-12-15T21:17:23.013Z,96974.06
2022-12-15T21:19:54.991Z,96974.09
2022-12-15T21:22:28.046Z,96977.00
2022-12-15T21:25:00.873Z,96975.41
2022-12-15T21:27:33.474Z,96974.19
2022-12-15T21:30:20.502Z,96977.50
2022-12-15T21:32:53.224Z,96980.91
2022-12-15T21:35:30.101Z,96982.47
2022-12-15T21:38:05.131Z,96986.75
2022-12-15T21:40:37.135Z,96990.59
2022-12-15T21:43:11.395Z,96982.97
2022-12-15T21:45:43.351Z,96983.41
2022-12-15T21:48:34.591Z,96978.63
2022-12-15T21:51:14.764Z,96992.13
2022-12-15T21:53:47.427Z,96992.75
2022-12-15T21:56:21.209Z,96991.31
2022-12-15T21:58:54.968Z,96995.47
2022-12-15T22:01:30.858Z,97002.97
2022-12-15T22:04:11.244Z,97004.88
2022-12-15T22:06:48.639Z,97006.00
2022-12-15T22:09:23.067Z,97003.59
2022-12-15T22:11:56.364Z,97002.03
2022-12-15T22:14:33.917Z,96998.13
2022-12-15T22:17:20.941Z,97000.66
2022-12-15T22:19:53.530Z,97002.88
2022-12-15T22:22:31.605Z,97002.69
2022-12-15T22:25:04.994Z,97004.91
2022-12-15T22:27:36.883Z,97006.38
2022-12-15T22:30:27.758Z,97000.94
2022-12-15T22:33:00.175Z,96996.09
2022-12-15T22:35:32.739Z,97003.66
2022-12-15T22:38:04.618Z,97006.94
2022-12-15T22:40:37.099Z,97007.75
2022-12-15T22:43:34.038Z,97005.50
2022-12-15T22:46:10.906Z,97000.06
2022-12-15T22:48:47.360Z,97003.13
2022-12-15T22:51:20.121Z,97003.34
2022-12-15T22:53:52.008Z,97004.44
2022-12-15T22:56:27.289Z,97006.94
2022-12-15T22:59:03.892Z,97013.28
2022-12-15T23:01:36.417Z,97011.69
2022-12-15T23:04:08.377Z,97010.50
2022-12-15T23:06:41.450Z,97007.69
2022-12-15T23:09:13.335Z,97013.31
2022-12-15T23:11:45.987Z,97011.13
2022-12-15T23:14:18.900Z,97009.00
2022-12-15T23:16:51.370Z,97019.53
2022-12-15T23:19:25.808Z,97023.16
2022-12-15T23:21:58.715Z,97022.34
2022-12-15T23:24:31.240Z,97029.47
2022-12-15T23:27:03.901Z,97028.59
2022-12-15T23:29:36.196Z,97027.03
2022-12-15T23:32:08.678Z,97034.53
2022-12-15T23:34:40.558Z,97038.88
2022-12-15T23:37:13.076Z,97046.53
2022-12-15T23:39:45.320Z,97059.19
2022-12-15T23:42:17.881Z,97062.44
2022-12-15T23:44:49.850Z,97071.13
2022-12-15T23:47:22.394Z,97075.41
2022-12-15T23:49:54.581Z,97076.75
2022-12-15T23:52:29.052Z,97077.06
2022-12-15T23:55:00.933Z,97079.72
2022-12-15T23:57:34.611Z,97086.50
